createdAt,value
2023-12-22T00:01:08.299Z,71.89
2023-12-22T00:03:34.966Z,68.78
2023-12-22T00:06:01.550Z,70.71
2023-12-22T00:08:27.943Z,68.53
2023-12-22T00:10:54.382Z,67.83
2023-12-22T00:13:20.816Z,67.68
2023-12-22T00:15:47.221Z,74.56
2023-12-22T00:18:13.712Z,77.32
2023-12-22T00:20:40.123Z,78.58
2023-12-22T00:23:06.546Z,80.34
2023-12-22T00:25:33.024Z,80.88
2023-12-22T00:27:59.502Z,81.51
2023-12-22T00:30:26.071Z,80.83
2023-12-22T00:32:52.555Z,81.82
2023-12-22T00:35:19.021Z,80.40
2023-12-22T00:37:45.518Z,80.43
2023-12-22T00:40:12.163Z,81.21
2023-12-22T00:42:38.537Z,79.94
2023-12-22T00:45:05.579Z,79.91
2023-12-22T00:47:32.140Z,80.08
2023-12-22T00:49:58.668Z,80.92
2023-12-22T00:52:25.100Z,79.28
2023-12-22T00:54:51.658Z,80.10
2023-12-22T00:57:18.537Z,79.88
2023-12-22T00:59:48.632Z,80.27
2023-12-22T01:02:18.742Z,79.83
2023-12-22T01:04:45.707Z,80.27
2023-12-22T01:07:12.375Z,82.05
2023-12-22T01:09:38.866Z,83.47
2023-12-22T01:12:07.276Z,84.46
2023-12-22T01:14:34.671Z,84.26
2023-12-22T01:17:01.440Z,83.74
2023-12-22T01:19:28.263Z,83.38
2023-12-22T01:21:54.850Z,83.94
2023-12-22T01:24:21.350Z,84.53
2023-12-22T01:26:47.982Z,84.40
2023-12-22T01:29:14.412Z,85.44
2023-12-22T01:31:40.946Z,85.31
2023-12-22T01:34:07.478Z,85.26
2023-12-22T01:36:35.387Z,85.77
2023-12-22T01:39:01.848Z,84.91
2023-12-22T01:41:28.257Z,86.75
2023-12-22T01:43:54.772Z,88.76
2023-12-22T01:46:21.807Z,90.80
2023-12-22T01:48:48.872Z,93.67
2023-12-22T01:51:15.552Z,95.16
2023-12-22T01:53:42.167Z,95.50
2023-12-22T01:56:09.507Z,96.15
2023-12-22T01:58:37.571Z,96.44
2023-12-22T02:01:14.895Z,96.56
2023-12-22T02:03:41.854Z,97.16
2023-12-22T02:06:08.519Z,96.51
2023-12-22T02:08:35.964Z,96.17
2023-12-22T02:11:02.684Z,95.84
2023-12-22T02:13:29.971Z,95.76
2023-12-22T02:16:09.906Z,95.96
2023-12-22T02:18:39.977Z,95.01
2023-12-22T02:21:06.465Z,95.29
2023-12-22T02:23:33.089Z,95.41
2023-12-22T02:26:26.055Z,95.46
2023-12-22T02:28:55.161Z,95.02
2023-12-22T02:31:37.182Z,94.83
2023-12-22T02:34:09.113Z,95.04
2023-12-22T02:36:37.850Z,94.38
2023-12-22T02:39:05.621Z,93.72
2023-12-22T02:41:32.152Z,93.76
2023-12-22T02:43:58.811Z,93.78
2023-12-22T02:46:25.280Z,93.82
2023-12-22T02:48:51.735Z,93.40
2023-12-22T02:51:18.271Z,92.99
2023-12-22T02:53:44.637Z,93.18
2023-12-22T02:56:11.036Z,92.54
2023-12-22T02:58:37.492Z,93.81
2023-12-22T03:01:04.179Z,94.30
2023-12-22T03:03:30.651Z,94.67
2023-12-22T03:05:57.086Z,94.88
2023-12-22T03:08:23.583Z,93.60
2023-12-22T03:10:50.081Z,94.02
2023-12-22T03:13:16.768Z,93.52
2023-12-22T03:15:43.176Z,93.42
2023-12-22T03:18:09.618Z,92.96
2023-12-22T03:20:36.057Z,93.33
2023-12-22T03:23:02.633Z,94.11
2023-12-22T03:25:29.080Z,93.70
2023-12-22T03:27:55.470Z,92.38
2023-12-22T03:30:21.936Z,92.95
2023-12-22T03:32:48.483Z,92.98
2023-12-22T03:35:15.138Z,92.96
2023-12-22T03:37:41.539Z,93.12
2023-12-22T03:40:08.740Z,93.72
2023-12-22T03:42:35.178Z,91.97
2023-12-22T03:45:01.566Z,91.84
2023-12-22T03:47:28.015Z,91.22
2023-12-22T03:49:54.439Z,91.59
2023-12-22T03:52:21.112Z,91.13
2023-12-22T03:54:47.638Z,90.31
2023-12-22T03:57:14.061Z,89.89
2023-12-22T03:59:40.504Z,91.41
2023-12-22T04:02:07.236Z,88.80
2023-12-22T04:04:33.721Z,90.17
2023-12-22T04:07:00.112Z,90.52
2023-12-22T04:09:26.518Z,90.39
2023-12-22T04:11:52.944Z,89.29
2023-12-22T04:14:19.789Z,90.73
2023-12-22T04:16:46.775Z,90.81
2023-12-22T04:19:13.583Z,90.13
2023-12-22T04:21:40.227Z,90.25
2023-12-22T04:24:06.990Z,91.19
2023-12-22T04:26:33.398Z,90.49
2023-12-22T04:28:59.958Z,90.42
2023-12-22T04:31:26.409Z,89.63
2023-12-22T04:33:52.829Z,90.22
2023-12-22T04:36:19.320Z,89.26
2023-12-22T04:38:45.708Z,87.89
2023-12-22T04:41:12.160Z,85.01
2023-12-22T04:43:38.616Z,84.67
2023-12-22T04:46:05.008Z,84.50
2023-12-22T04:48:31.704Z,85.12
2023-12-22T04:50:58.196Z,85.33
2023-12-22T04:53:24.742Z,84.61
2023-12-22T04:55:51.272Z,83.93
2023-12-22T04:58:17.800Z,82.78
2023-12-22T05:00:44.391Z,84.21
2023-12-22T05:03:10.926Z,82.28
2023-12-22T05:05:37.364Z,81.88
2023-12-22T05:08:04.081Z,82.97
2023-12-22T05:10:30.869Z,81.45
2023-12-22T05:12:57.318Z,81.79
2023-12-22T05:15:23.707Z,85.13
2023-12-22T05:17:50.416Z,87.66
2023-12-22T05:20:17.613Z,87.65
2023-12-22T05:22:44.144Z,87.75
2023-12-22T05:25:11.524Z,88.90
2023-12-22T05:27:37.995Z,90.88
2023-12-22T05:30:05.079Z,91.58
2023-12-22T05:32:31.551Z,91.31
2023-12-22T05:34:58.118Z,92.23
2023-12-22T05:37:24.626Z,90.96
2023-12-22T05:39:51.072Z,90.46
2023-12-22T05:42:17.800Z,91.34
2023-12-22T05:44:44.781Z,92.37
2023-12-22T05:47:11.960Z,92.55
2023-12-22T05:49:40.720Z,92.56
2023-12-22T05:52:07.191Z,92.59
2023-12-22T05:54:33.773Z,93.60
2023-12-22T05:57:00.716Z,93.14
2023-12-22T05:59:28.740Z,92.56
2023-12-22T06:01:55.529Z,93.14
2023-12-22T06:04:22.107Z,93.38
2023-12-22T06:06:48.613Z,92.24
2023-12-22T06:09:15.146Z,93.72
2023-12-22T06:11:41.571Z,91.49
2023-12-22T06:14:08.095Z,91.02
2023-12-22T06:16:34.719Z,89.02
2023-12-22T06:19:01.211Z,89.54
2023-12-22T06:21:27.671Z,88.69
2023-12-22T06:23:54.068Z,88.18
2023-12-22T06:26:20.502Z,88.88
2023-12-22T06:28:46.936Z,88.01
2023-12-22T06:31:21.876Z,85.79
2023-12-22T06:33:49.501Z,86.20
2023-12-22T06:36:25.990Z,86.21
2023-12-22T06:38:54.401Z,85.23
2023-12-22T06:41:27.997Z,84.80
2023-12-22T06:43:56.322Z,84.55
2023-12-22T06:46:24.235Z,84.71
2023-12-22T06:48:50.883Z,84.60
2023-12-22T06:51:25.039Z,84.93
2023-12-22T06:53:51.737Z,86.40
2023-12-22T06:56:20.965Z,84.32
2023-12-22T06:58:49.632Z,84.79
2023-12-22T07:01:20.991Z,85.29
2023-12-22T07:03:49.282Z,84.29
2023-12-22T07:06:20.429Z,84.41
2023-12-22T07:09:15.246Z,84.72
2023-12-22T07:11:44.065Z,84.42
2023-12-22T07:14:12.327Z,82.81
2023-12-22T07:16:39.525Z,84.00
2023-12-22T07:19:06.515Z,83.81
2023-12-22T07:21:32.997Z,82.24
2023-12-22T07:24:00.440Z,80.47
2023-12-22T07:26:30.226Z,80.85
2023-12-22T07:28:56.887Z,81.85
2023-12-22T07:31:23.982Z,82.70
2023-12-22T07:33:50.580Z,85.92
2023-12-22T07:36:19.605Z,88.82
2023-12-22T07:38:46.221Z,91.16
2023-12-22T07:41:12.823Z,92.12
2023-12-22T07:43:39.763Z,92.82
2023-12-22T07:46:06.252Z,92.46
2023-12-22T07:48:32.920Z,92.63
2023-12-22T07:50:59.420Z,92.64
2023-12-22T07:53:25.853Z,92.96
2023-12-22T07:55:52.325Z,91.70
2023-12-22T07:58:18.818Z,92.08
2023-12-22T08:00:45.381Z,92.14
2023-12-22T08:03:11.812Z,92.23
2023-12-22T08:05:38.259Z,91.51
2023-12-22T08:08:05.124Z,92.53
2023-12-22T08:10:31.604Z,90.98
2023-12-22T08:12:59.014Z,92.40
2023-12-22T08:15:33.046Z,91.95
2023-12-22T08:18:03.367Z,92.22
2023-12-22T08:20:33.424Z,91.49
2023-12-22T08:23:06.914Z,91.05
2023-12-22T08:25:36.592Z,91.46
2023-12-22T08:28:03.465Z,90.86
2023-12-22T08:30:29.869Z,91.72
2023-12-22T08:32:56.447Z,92.28
2023-12-22T08:35:22.951Z,91.71
2023-12-22T08:37:49.801Z,89.04
2023-12-22T08:40:16.436Z,88.78
2023-12-22T08:42:42.977Z,87.54
2023-12-22T08:45:09.521Z,86.66
2023-12-22T08:47:36.024Z,86.83
2023-12-22T08:50:05.225Z,84.48
2023-12-22T08:52:31.784Z,83.97
2023-12-22T08:54:58.185Z,83.32
2023-12-22T08:57:25.055Z,83.36
2023-12-22T08:59:51.444Z,80.21
2023-12-22T09:02:17.860Z,79.72
2023-12-22T09:04:44.333Z,79.80
2023-12-22T09:07:11.132Z,80.42
2023-12-22T09:09:37.561Z,77.68
2023-12-22T09:12:05.735Z,75.99
2023-12-22T09:14:32.263Z,77.53
2023-12-22T09:16:58.699Z,74.51
2023-12-22T09:19:25.285Z,77.86
2023-12-22T09:21:51.797Z,76.88
2023-12-22T09:24:18.212Z,75.04
2023-12-22T09:26:44.833Z,74.85
2023-12-22T09:29:11.259Z,78.26
2023-12-22T09:31:37.811Z,74.74
2023-12-22T09:34:04.864Z,74.11
2023-12-22T09:36:31.428Z,73.72
2023-12-22T09:38:57.832Z,73.31
2023-12-22T09:41:24.333Z,75.12
2023-12-22T09:43:51.824Z,74.43
2023-12-22T09:46:20.708Z,72.22
2023-12-22T09:48:48.192Z,72.51
2023-12-22T09:51:15.416Z,72.81
2023-12-22T09:53:42.910Z,71.38
2023-12-22T09:56:09.897Z,73.46
2023-12-22T09:58:37.572Z,71.35
2023-12-22T10:01:06.614Z,72.10
2023-12-22T10:03:38.460Z,71.41
2023-12-22T10:06:05.550Z,72.08
2023-12-22T10:08:32.546Z,72.66
2023-12-22T10:10:59.429Z,72.20
2023-12-22T10:13:29.068Z,74.20
2023-12-22T10:15:57.008Z,74.28
2023-12-22T10:18:23.883Z,73.45
2023-12-22T10:20:50.390Z,73.99
2023-12-22T10:23:16.785Z,75.70
2023-12-22T10:25:43.443Z,74.81
2023-12-22T10:28:12.877Z,75.27
2023-12-22T10:30:40.936Z,76.34
2023-12-22T10:33:08.223Z,75.76
2023-12-22T10:35:34.725Z,74.97
2023-12-22T10:38:03.705Z,75.74
2023-12-22T10:40:31.224Z,76.44
2023-12-22T10:42:58.032Z,78.25
2023-12-22T10:45:25.738Z,81.34
2023-12-22T10:47:53.144Z,82.36
2023-12-22T10:50:25.562Z,82.46
2023-12-22T10:52:52.886Z,84.14
2023-12-22T10:55:20.338Z,85.14
2023-12-22T10:57:48.056Z,86.82
2023-12-22T11:00:20.856Z,89.96
2023-12-22T11:02:52.451Z,91.96
2023-12-22T11:05:19.273Z,93.39
2023-12-22T11:07:51.220Z,93.41
2023-12-22T11:10:21.984Z,93.28
2023-12-22T11:12:49.598Z,94.02
2023-12-22T11:15:16.254Z,93.52
2023-12-22T11:17:43.789Z,93.53
2023-12-22T11:20:11.753Z,93.43
2023-12-22T11:22:39.954Z,93.47
2023-12-22T11:25:09.231Z,93.68
2023-12-22T11:27:38.804Z,93.52
2023-12-22T11:30:09.848Z,93.13
2023-12-22T11:32:37.305Z,93.75
2023-12-22T11:35:05.394Z,94.32
2023-12-22T11:37:33.276Z,93.48
2023-12-22T11:39:59.776Z,93.78
2023-12-22T11:42:33.467Z,93.93
2023-12-22T11:45:00.121Z,92.98
2023-12-22T11:47:29.885Z,92.73
2023-12-22T11:49:56.900Z,92.31
2023-12-22T11:52:29.437Z,92.41
2023-12-22T11:54:57.212Z,92.45
2023-12-22T11:57:29.832Z,92.65
2023-12-22T11:59:56.792Z,92.16
2023-12-22T12:02:23.715Z,91.91
2023-12-22T12:04:51.961Z,91.49
2023-12-22T12:07:37.428Z,90.13
2023-12-22T12:10:04.116Z,89.28
2023-12-22T12:12:32.433Z,89.34
2023-12-22T12:15:07.989Z,89.76
2023-12-22T12:17:34.558Z,90.25
2023-12-22T12:20:01.102Z,89.69
2023-12-22T12:22:29.181Z,89.85
2023-12-22T12:24:55.745Z,89.99
2023-12-22T12:27:22.361Z,89.85
2023-12-22T12:29:48.934Z,90.79
2023-12-22T12:32:15.932Z,90.12
2023-12-22T12:34:45.615Z,89.73
2023-12-22T12:37:12.261Z,89.88
2023-12-22T12:39:40.856Z,90.09
2023-12-22T12:42:08.945Z,90.02
2023-12-22T12:44:36.602Z,90.95
2023-12-22T12:47:13.287Z,89.58
2023-12-22T12:49:39.915Z,89.79
2023-12-22T12:52:07.225Z,89.83
2023-12-22T12:54:33.796Z,88.66
2023-12-22T12:57:00.347Z,88.82
2023-12-22T12:59:26.771Z,88.38
2023-12-22T13:01:54.407Z,88.01
2023-12-22T13:04:20.929Z,88.06
2023-12-22T13:06:51.070Z,86.78
2023-12-22T13:09:19.039Z,88.00
2023-12-22T13:11:49.848Z,87.27
2023-12-22T13:14:28.992Z,86.84
2023-12-22T13:16:58.454Z,85.92
2023-12-22T13:19:26.728Z,86.41
2023-12-22T13:21:57.119Z,85.25
2023-12-22T13:24:24.237Z,86.34
2023-12-22T13:27:02.112Z,85.15
2023-12-22T13:29:29.537Z,84.96
2023-12-22T13:31:56.576Z,84.45
2023-12-22T13:34:23.035Z,85.27
2023-12-22T13:36:49.607Z,84.49
2023-12-22T13:39:16.265Z,85.40
2023-12-22T13:41:46.482Z,85.97
2023-12-22T13:44:14.032Z,84.39
2023-12-22T13:46:43.296Z,84.11
2023-12-22T13:49:11.620Z,83.65
2023-12-22T13:51:45.927Z,83.03
2023-12-22T13:54:12.837Z,83.21
2023-12-22T13:56:43.732Z,82.97
2023-12-22T13:59:10.991Z,83.50
2023-12-22T14:01:37.614Z,82.40
2023-12-22T14:04:04.137Z,84.68
2023-12-22T14:06:30.941Z,84.93
2023-12-22T14:08:58.006Z,85.97
2023-12-22T14:11:24.388Z,88.21
2023-12-22T14:13:50.947Z,90.10
2023-12-22T14:16:17.471Z,91.16
2023-12-22T14:18:44.217Z,91.35
2023-12-22T14:21:10.753Z,92.04
2023-12-22T14:23:37.146Z,92.09
2023-12-22T14:26:04.203Z,92.59
2023-12-22T14:28:30.888Z,92.90
2023-12-22T14:30:57.390Z,92.35
2023-12-22T14:33:23.872Z,92.46
2023-12-22T14:35:50.377Z,92.62
2023-12-22T14:38:16.901Z,92.63
2023-12-22T14:40:43.392Z,92.01
2023-12-22T14:43:09.831Z,91.33
2023-12-22T14:45:36.634Z,91.32
2023-12-22T14:48:03.323Z,90.70
2023-12-22T14:50:29.862Z,91.30
2023-12-22T14:52:56.334Z,90.71
2023-12-22T14:55:22.859Z,90.43
2023-12-22T14:57:50.144Z,91.15
2023-12-22T15:00:17.591Z,90.48
2023-12-22T15:02:44.104Z,91.12
2023-12-22T15:05:10.972Z,90.25
2023-12-22T15:07:37.683Z,90.53
2023-12-22T15:10:06.589Z,89.92
2023-12-22T15:12:37.197Z,90.00
2023-12-22T15:15:04.195Z,89.23
2023-12-22T15:17:32.704Z,89.70
2023-12-22T15:20:00.764Z,90.50
2023-12-22T15:22:28.165Z,89.69
2023-12-22T15:24:54.549Z,89.63
2023-12-22T15:27:21.005Z,90.10
2023-12-22T15:29:48.294Z,90.51
2023-12-22T15:32:14.900Z,90.59
2023-12-22T15:34:44.575Z,91.62
2023-12-22T15:37:11.055Z,90.80
2023-12-22T15:39:37.514Z,91.27
2023-12-22T15:42:04.255Z,91.61
2023-12-22T15:44:30.891Z,91.89
2023-12-22T15:46:57.357Z,91.94
2023-12-22T15:49:23.817Z,91.60
2023-12-22T15:51:53.941Z,91.77
2023-12-22T15:54:20.372Z,92.48
2023-12-22T15:56:46.828Z,92.43
2023-12-22T15:59:13.515Z,92.49
2023-12-22T16:01:46.674Z,93.12
2023-12-22T16:04:13.230Z,92.76
2023-12-22T16:06:39.900Z,93.04
2023-12-22T16:09:06.435Z,92.96
2023-12-22T16:11:33.532Z,93.70
2023-12-22T16:14:00.069Z,93.21
2023-12-22T16:16:26.628Z,93.31
2023-12-22T16:18:53.228Z,93.71
2023-12-22T16:21:19.913Z,93.90
2023-12-22T16:23:46.363Z,93.69
2023-12-22T16:26:12.889Z,94.47
2023-12-22T16:28:39.401Z,93.29
2023-12-22T16:31:05.845Z,92.35
2023-12-22T16:33:32.425Z,93.31
2023-12-22T16:35:59.029Z,94.63
2023-12-22T16:38:25.986Z,94.65
2023-12-22T16:40:52.457Z,95.96
2023-12-22T16:43:18.884Z,95.42
2023-12-22T16:45:45.404Z,95.07
2023-12-22T16:48:11.915Z,94.61
2023-12-22T16:50:38.341Z,95.27
2023-12-22T16:53:04.884Z,95.23
2023-12-22T16:55:31.451Z,95.36
2023-12-22T16:57:58.304Z,96.11
2023-12-22T17:00:24.716Z,95.29
2023-12-22T17:02:51.502Z,95.74
2023-12-22T17:05:18.727Z,95.84
2023-12-22T17:07:46.538Z,95.92
2023-12-22T17:10:14.122Z,95.45
2023-12-22T17:12:40.664Z,95.77
2023-12-22T17:15:07.907Z,95.77
2023-12-22T17:17:34.667Z,95.89
2023-12-22T17:20:03.202Z,95.95
2023-12-22T17:22:30.898Z,95.78
2023-12-22T17:24:57.469Z,95.92
2023-12-22T17:27:24.184Z,95.57
2023-12-22T17:29:50.689Z,95.49
2023-12-22T17:32:17.236Z,95.48
2023-12-22T17:34:43.758Z,95.73
2023-12-22T17:37:11.371Z,95.69
2023-12-22T17:39:38.226Z,95.68
2023-12-22T17:42:05.005Z,95.07
2023-12-22T17:44:31.450Z,94.57
2023-12-22T17:47:01.873Z,92.96
2023-12-22T17:49:28.372Z,92.07
2023-12-22T17:51:54.823Z,91.92
2023-12-22T17:54:21.711Z,89.72
2023-12-22T17:56:48.294Z,89.44
2023-12-22T17:59:14.716Z,88.66
2023-12-22T18:01:42.851Z,88.98
2023-12-22T18:04:09.512Z,88.58
2023-12-22T18:06:35.983Z,88.24
2023-12-22T18:09:04.442Z,87.26
2023-12-22T18:11:30.961Z,87.89
2023-12-22T18:13:57.450Z,87.08
2023-12-22T18:16:23.947Z,86.69
2023-12-22T18:18:50.542Z,87.02
2023-12-22T18:21:17.107Z,86.78
2023-12-22T18:23:45.769Z,86.36
2023-12-22T18:26:12.990Z,88.19
2023-12-22T18:28:39.406Z,86.84
2023-12-22T18:31:05.958Z,86.82
2023-12-22T18:33:32.484Z,87.01
2023-12-22T18:36:01.284Z,85.37
2023-12-22T18:38:27.725Z,85.89
2023-12-22T18:40:54.177Z,84.21
2023-12-22T18:43:20.628Z,84.52
2023-12-22T18:45:47.011Z,82.92
2023-12-22T18:48:13.655Z,83.20
2023-12-22T18:50:40.192Z,83.08
2023-12-22T18:53:07.715Z,84.39
2023-12-22T18:55:34.473Z,83.58
2023-12-22T18:58:01.230Z,82.04
2023-12-22T19:00:27.680Z,83.58
2023-12-22T19:02:59.041Z,82.29
2023-12-22T19:05:27.207Z,83.25
2023-12-22T19:07:54.245Z,82.20
2023-12-22T19:10:21.011Z,81.34
2023-12-22T19:12:50.375Z,82.16
2023-12-22T19:15:17.305Z,79.59
2023-12-22T19:17:44.508Z,79.98
2023-12-22T19:20:11.591Z,79.20
2023-12-22T19:22:38.201Z,78.63
2023-12-22T19:25:05.007Z,77.70
2023-12-22T19:27:32.556Z,79.01
2023-12-22T19:29:58.972Z,78.06
2023-12-22T19:32:25.676Z,78.81
2023-12-22T19:34:52.408Z,78.58
2023-12-22T19:37:19.919Z,79.44
2023-12-22T19:39:46.645Z,81.38
2023-12-22T19:42:13.463Z,80.84
2023-12-22T19:44:40.357Z,81.37
2023-12-22T19:47:07.007Z,80.24
2023-12-22T19:49:36.025Z,81.53
2023-12-22T19:52:03.959Z,81.30
2023-12-22T19:54:30.780Z,79.93
2023-12-22T19:56:57.289Z,79.83
2023-12-22T19:59:23.752Z,81.49
2023-12-22T20:01:50.187Z,80.70
2023-12-22T20:04:16.766Z,80.72
2023-12-22T20:06:45.270Z,80.95
2023-12-22T20:09:11.792Z,83.16
2023-12-22T20:11:38.168Z,82.45
2023-12-22T20:14:04.759Z,80.96
2023-12-22T20:16:31.225Z,81.92
2023-12-22T20:18:58.413Z,81.20
2023-12-22T20:21:25.038Z,81.25
2023-12-22T20:23:52.985Z,82.42
2023-12-22T20:26:19.700Z,80.93
2023-12-22T20:28:46.247Z,81.47
2023-12-22T20:31:12.746Z,80.82
2023-12-22T20:33:39.346Z,81.65
2023-12-22T20:36:06.208Z,81.75
2023-12-22T20:38:32.599Z,82.02
2023-12-22T20:40:58.998Z,82.26
2023-12-22T20:43:25.627Z,82.55
2023-12-22T20:45:52.728Z,83.07
2023-12-22T20:48:19.397Z,81.79
2023-12-22T20:50:45.858Z,82.66
2023-12-22T20:53:12.429Z,81.86
2023-12-22T20:55:40.325Z,81.50
2023-12-22T20:58:07.784Z,82.76
2023-12-22T21:00:34.981Z,82.14
2023-12-22T21:03:01.894Z,81.77
2023-12-22T21:05:29.634Z,82.91
2023-12-22T21:07:56.888Z,82.54
2023-12-22T21:10:23.551Z,81.57
2023-12-22T21:12:50.208Z,82.40
2023-12-22T21:15:16.681Z,83.75
2023-12-22T21:17:43.405Z,85.61
2023-12-22T21:20:10.551Z,86.25
2023-12-22T21:22:37.005Z,87.80
2023-12-22T21:25:03.580Z,86.83
2023-12-22T21:27:30.111Z,84.87
2023-12-22T21:29:57.090Z,81.96
2023-12-22T21:32:23.557Z,82.23
2023-12-22T21:34:49.988Z,82.27
2023-12-22T21:37:16.878Z,83.54
2023-12-22T21:39:43.366Z,82.15
2023-12-22T21:42:09.739Z,81.93
2023-12-22T21:44:42.838Z,81.44
2023-12-22T21:47:12.374Z,80.53
2023-12-22T21:49:42.519Z,82.39
2023-12-22T21:52:09.115Z,81.76
2023-12-22T21:54:36.295Z,81.38
2023-12-22T21:57:04.257Z,81.93
2023-12-22T21:59:30.943Z,82.55
2023-12-22T22:01:57.455Z,84.89
2023-12-22T22:04:27.198Z,84.61
2023-12-22T22:06:57.043Z,85.85
2023-12-22T22:09:23.458Z,85.31
2023-12-22T22:11:49.840Z,87.23
2023-12-22T22:14:25.981Z,86.92
2023-12-22T22:16:56.294Z,85.79
2023-12-22T22:19:23.287Z,85.43
2023-12-22T22:21:49.789Z,85.89
2023-12-22T22:24:16.245Z,84.65
2023-12-22T22:26:42.764Z,86.08
2023-12-22T22:29:09.797Z,84.99
2023-12-22T22:31:43.176Z,83.16
2023-12-22T22:34:10.977Z,84.39
2023-12-22T22:36:38.163Z,84.17
2023-12-22T22:39:05.257Z,82.94
2023-12-22T22:41:32.131Z,82.75
2023-12-22T22:43:58.734Z,83.33
2023-12-22T22:46:25.190Z,82.60
2023-12-22T22:48:51.676Z,83.23
2023-12-22T22:51:25.948Z,83.92
2023-12-22T22:53:52.815Z,83.76
2023-12-22T22:56:20.134Z,82.32
2023-12-22T22:58:46.624Z,82.47
2023-12-22T23:01:13.212Z,83.29
2023-12-22T23:03:39.849Z,82.17
2023-12-22T23:06:07.526Z,81.18
2023-12-22T23:08:34.547Z,79.65
2023-12-22T23:11:02.444Z,78.73
2023-12-22T23:13:29.171Z,80.02
2023-12-22T23:15:55.607Z,78.03
2023-12-22T23:18:22.220Z,79.53
2023-12-22T23:20:48.677Z,78.45
2023-12-22T23:23:15.304Z,78.27
2023-12-22T23:25:41.803Z,79.83
2023-12-22T23:28:08.639Z,78.31
2023-12-22T23:30:35.086Z,76.00
2023-12-22T23:33:02.077Z,76.25
2023-12-22T23:35:28.848Z,77.56
2023-12-22T23:37:55.378Z,77.15
2023-12-22T23:40:21.995Z,73.91
2023-12-22T23:42:48.422Z,74.80
2023-12-22T23:45:15.037Z,74.39
2023-12-22T23:47:41.525Z,73.58
2023-12-22T23:50:08.812Z,72.33
2023-12-22T23:52:35.547Z,73.61
2023-12-22T23:55:02.019Z,73.19
2023-12-22T23:57:28.459Z,74.47
2023-12-22T23:59:54.832Z,72.62
